Time;durP1;ratioP1;P1;durP2;ratioP2;P2;SDS_P1;SDS_P2;PMS_P1;PMS_P2;Temp;Humidity;BMP_temperature;BMP_pressure;BME280_temperature;BME280_humidity;BME280_pressure;Samples;Min_cycle;Max_cycle;Signal;HPM_P1;HPM_P2
2022/08/03 00:01:32;;;;;;;3.58;2.80;;;;;;;18.35;90.08;101307.84;4973045;28;20295;-53
2022/08/03 00:03:58;;;;;;;3.35;2.90;;;;;;;18.18;91.52;101308.88;4973490;28;20583;-52
2022/08/03 00:06:23;;;;;;;6.43;3.20;;;;;;;18.19;91.92;101301.63;4974248;28;20165;-49
2022/08/03 00:08:49;;;;;;;4.00;2.63;;;;;;;18.21;90.40;101299.69;4974304;28;20186;-48
2022/08/03 00:11:14;;;;;;;3.67;2.75;;;;;;;18.32;89.20;101294.44;4974259;28;20292;-50
2022/08/03 00:13:40;;;;;;;2.88;2.35;;;;;;;18.41;88.04;101295.69;4973724;28;20182;-52
2022/08/03 00:16:05;;;;;;;4.63;3.10;;;;;;;18.43;87.91;101289.22;4973748;28;20199;-49
2022/08/03 00:18:31;;;;;;;2.67;2.47;;;;;;;18.46;87.96;101305.31;4974318;28;20177;-48
2022/08/03 00:20:56;;;;;;;5.53;2.75;;;;;;;18.45;87.08;101289.97;4973855;28;20177;-50
2022/08/03 00:23:22;;;;;;;3.15;2.60;;;;;;;18.47;86.79;101290.75;4973327;28;20213;-52
2022/08/03 00:25:47;;;;;;;4.32;2.88;;;;;;;18.52;86.70;101296.78;4974144;28;20261;-47
2022/08/03 00:28:13;;;;;;;6.28;2.90;;;;;;;18.53;86.14;101294.94;4973577;28;20273;-48
2022/08/03 00:30:38;;;;;;;6.15;2.95;;;;;;;18.64;84.61;101291.53;4973796;28;20664;-49
2022/08/03 00:33:04;;;;;;;5.35;2.65;;;;;;;18.62;84.46;101288.03;4990099;28;20177;-45
2022/08/03 00:35:30;;;;;;;6.20;2.70;;;;;;;18.53;85.05;101284.06;4992993;28;20201;-46
2022/08/03 00:37:56;;;;;;;4.85;2.80;;;;;;;18.57;84.72;101290.19;4993255;28;20162;-45
2022/08/03 00:40:22;;;;;;;4.82;2.70;;;;;;;18.48;85.27;101287.09;4992652;28;20178;-46
2022/08/03 00:42:58;;;;;;;3.10;2.58;;;;;;;18.48;84.73;101289.81;4992376;28;20557;-46
2022/08/03 00:45:44;;;;;;;5.25;2.50;;;;;;;18.51;84.66;101286.88;4992772;28;20201;-44
2022/08/03 00:48:11;;;;;;;5.22;3.10;;;;;;;18.52;84.47;101282.34;4993100;28;20280;-45
2022/08/03 00:50:41;;;;;;;2.85;2.50;;;;;;;18.53;84.71;101290.38;4992727;28;20265;-45
2022/08/03 00:53:11;;;;;;;4.88;2.83;;;;;;;18.54;84.56;101285.81;4992281;28;20254;-45
2022/08/03 00:55:37;;;;;;;6.03;2.67;;;;;;;18.46;84.85;101289.03;4992730;28;20304;-45
2022/08/03 00:58:06;;;;;;;4.47;2.50;;;;;;;18.46;84.36;101288.16;4992141;28;20599;-47
2022/08/03 01:00:35;;;;;;;5.38;2.42;;;;;;;18.42;85.06;101286.59;4991348;28;20181;-45
2022/08/03 01:03:01;;;;;;;6.43;2.58;;;;;;;18.36;85.12;101282.44;4992114;28;20244;-46
2022/08/03 01:05:27;;;;;;;4.90;2.40;;;;;;;18.37;84.87;101275.19;4992954;28;20243;-46
2022/08/03 01:08:11;;;;;;;3.65;2.67;;;;;;;18.32;85.12;101279.06;4992477;28;20220;-47
2022/08/03 01:10:55;;;;;;;3.78;2.78;;;;;;;18.28;85.49;101266.66;4991323;28;20181;-46
2022/08/03 01:13:47;;;;;;;4.65;2.85;;;;;;;18.24;85.74;101261.53;4992025;28;20208;-46
2022/08/03 01:16:27;;;;;;;4.75;2.80;;;;;;;18.15;86.28;101270.22;4992351;28;20209;-46
2022/08/03 01:19:21;;;;;;;3.28;2.97;;;;;;;18.16;85.79;101263.84;4992320;28;20166;-47
2022/08/03 01:21:56;;;;;;;3.80;2.88;;;;;;;18.14;86.25;101263.06;4992309;28;20237;-44
2022/08/03 01:24:31;;;;;;;5.82;2.90;;;;;;;18.15;86.00;101264.81;4991942;28;20180;-45
2022/08/03 01:27:09;;;;;;;3.92;2.70;;;;;;;18.12;85.76;101258.59;4992350;28;20192;-44
2022/08/03 01:30:00;;;;;;;3.63;2.72;;;;;;;18.16;86.10;101253.00;4992357;28;20204;-46
2022/08/03 01:32:35;;;;;;;4.90;3.10;;;;;;;18.12;85.91;101261.31;4991468;28;20194;-44
2022/08/03 01:35:08;;;;;;;5.53;2.72;;;;;;;18.11;86.00;101254.16;4991699;28;20216;-44
2022/08/03 01:37:50;;;;;;;5.13;2.90;;;;;;;18.09;85.50;101258.81;4992019;28;20204;-46
2022/08/03 01:40:18;;;;;;;8.13;2.90;;;;;;;18.08;85.92;101257.06;4991992;28;20193;-45
2022/08/03 01:42:45;;;;;;;4.90;2.92;;;;;;;18.04;85.89;101252.81;4991733;28;20252;-46
2022/08/03 01:45:12;;;;;;;4.88;3.10;;;;;;;17.98;86.11;101250.47;4991215;28;20699;-44
2022/08/03 01:47:39;;;;;;;4.22;2.72;;;;;;;17.97;86.33;101251.44;4990553;28;20212;-46
2022/08/03 01:50:07;;;;;;;5.60;2.72;;;;;;;17.95;86.42;101249.78;4987187;28;20173;-45
2022/08/03 01:52:36;;;;;;;4.45;2.72;;;;;;;17.92;86.85;101253.56;4991663;28;20300;-44
2022/08/03 01:55:04;;;;;;;7.22;3.15;;;;;;;17.80;87.61;101248.88;4991042;28;20189;-46
2022/08/03 01:57:30;;;;;;;3.25;2.40;;;;;;;17.68;88.61;101258.63;4990337;28;20231;-46
2022/08/03 01:59:56;;;;;;;6.32;2.88;;;;;;;17.57;89.75;101243.03;4978405;28;20198;-43
2022/08/03 02:02:23;;;;;;;4.00;2.83;;;;;;;17.54;89.94;101253.19;4985577;28;20212;-44
2022/08/03 02:04:52;;;;;;;3.85;2.95;;;;;;;17.47;90.65;101256.28;4989811;28;20645;-47
2022/08/03 02:07:18;;;;;;;5.20;3.08;;;;;;;17.44;90.87;101240.19;4991177;28;20185;-45
2022/08/03 02:09:48;;;;;;;6.07;3.05;;;;;;;17.43;90.98;101248.44;4991447;28;20196;-44
2022/08/03 02:12:14;;;;;;;4.47;3.03;;;;;;;17.42;90.79;101252.09;4989508;28;20209;-45
2022/08/03 02:14:43;;;;;;;3.47;3.17;;;;;;;17.40;91.12;101240.47;4990793;28;20217;-43
2022/08/03 02:17:11;;;;;;;5.38;3.00;;;;;;;17.37;91.11;101243.38;4990811;28;20324;-44
2022/08/03 02:19:38;;;;;;;5.65;2.75;;;;;;;17.41;91.35;101239.53;4991099;28;20185;-45
2022/08/03 02:22:07;;;;;;;5.75;2.88;;;;;;;17.27;91.64;101251.16;4991446;28;20215;-44
2022/08/03 02:24:32;;;;;;;5.65;3.20;;;;;;;17.18;91.85;101247.16;4990457;28;20177;-44
2022/08/03 02:26:59;;;;;;;4.28;3.15;;;;;;;17.11;92.61;101242.22;4991011;28;20649;-43
2022/08/03 02:29:31;;;;;;;8.02;3.05;;;;;;;17.11;92.76;101245.78;4991173;28;20169;-45
2022/08/03 02:31:59;;;;;;;6.00;2.97;;;;;;;17.02;93.09;101243.63;4983094;28;20210;-45
2022/08/03 02:34:28;;;;;;;3.45;2.50;;;;;;;16.95;93.75;101239.56;4971093;28;20733;-46
2022/08/03 02:36:59;;;;;;;3.35;3.05;;;;;;;17.01;93.90;101231.03;4971821;28;20209;-43
2022/08/03 02:39:30;;;;;;;6.07;3.33;;;;;;;17.01;93.44;101231.03;4971779;28;20166;-45
2022/08/03 02:42:01;;;;;;;4.07;3.20;;;;;;;17.07;93.22;101236.09;4971514;28;20243;-46
2022/08/03 02:44:28;;;;;;;4.35;3.47;;;;;;;16.98;93.15;101223.13;4971379;28;20209;-45
2022/08/03 02:46:57;;;;;;;3.72;3.17;;;;;;;16.97;93.20;101237.63;4971322;28;20166;-45
2022/08/03 02:49:25;;;;;;;4.38;3.30;;;;;;;17.05;92.86;101227.19;4971672;28;20547;-44
2022/08/03 02:51:53;;;;;;;4.78;3.70;;;;;;;17.15;92.58;101227.53;4971269;28;20249;-45
2022/08/03 02:54:22;;;;;;;6.57;4.10;;;;;;;17.26;91.73;101225.06;4969714;28;20198;-47
2022/08/03 02:56:48;;;;;;;3.75;3.45;;;;;;;17.33;91.15;101210.19;4970736;28;20228;-45
2022/08/03 02:59:17;;;;;;;4.65;3.70;;;;;;;17.39;90.50;101222.50;4971426;28;20178;-45
2022/08/03 03:01:44;;;;;;;6.53;4.18;;;;;;;17.50;89.74;101211.88;4971374;28;20256;-44
2022/08/03 03:04:10;;;;;;;5.32;4.32;;;;;;;17.57;89.29;101217.78;4971580;28;20174;-45
2022/08/03 03:06:38;;;;;;;3.95;3.58;;;;;;;17.53;89.32;101219.78;4974169;28;20205;-46
2022/08/03 03:09:04;;;;;;;7.88;4.57;;;;;;;17.57;89.20;101220.50;4974840;28;20536;-45
2022/08/03 03:11:30;;;;;;;6.40;4.63;;;;;;;17.63;88.76;101209.28;4974859;28;20201;-46
2022/08/03 03:13:57;;;;;;;6.88;4.72;;;;;;;17.66;88.63;101215.38;4974657;28;20189;-46
2022/08/03 03:16:25;;;;;;;5.43;4.38;;;;;;;17.68;88.44;101205.31;4974634;28;20182;-46
2022/08/03 03:18:50;;;;;;;5.65;4.57;;;;;;;17.76;87.98;101209.41;4974990;28;20315;-47
2022/08/03 03:21:18;;;;;;;6.97;4.95;;;;;;;17.74;88.05;101198.63;4974488;28;20638;-44
2022/08/03 03:23:44;;;;;;;7.97;5.00;;;;;;;17.75;88.06;101205.78;4974457;28;20206;-45
2022/08/03 03:26:13;;;;;;;6.38;5.30;;;;;;;17.77;88.02;101209.28;4973502;28;20255;-45
2022/08/03 03:28:38;;;;;;;4.90;4.50;;;;;;;17.80;87.82;101209.09;4974595;28;20528;-44
2022/08/03 03:31:05;;;;;;;6.72;4.28;;;;;;;17.80;87.95;101209.09;4975784;28;20232;-45
2022/08/03 03:33:33;;;;;;;5.45;4.82;;;;;;;17.83;88.23;101210.78;4993409;28;20185;-47
2022/08/03 03:35:59;;;;;;;4.65;4.18;;;;;;;17.82;87.96;101222.56;4993994;28;20690;-46
2022/08/03 03:38:25;;;;;;;6.95;4.65;;;;;;;17.80;88.36;101205.50;4994042;28;20243;-45
2022/08/03 03:40:51;;;;;;;4.57;4.18;;;;;;;17.80;88.25;101210.91;4993875;28;20195;-46
2022/08/03 03:43:17;;;;;;;9.77;4.40;;;;;;;17.75;88.66;101215.75;4993297;28;20640;-45
2022/08/03 03:45:44;;;;;;;6.75;4.05;;;;;;;17.79;88.42;101206.47;4994221;28;20581;-46
2022/08/03 03:48:10;;;;;;;4.90;4.50;;;;;;;17.85;88.16;101207.00;4993637;28;20195;-46
2022/08/03 03:50:39;;;;;;;6.32;4.57;;;;;;;17.86;87.95;101207.88;4984741;28;20197;-46
2022/08/03 03:53:09;;;;;;;6.70;4.60;;;;;;;17.85;87.81;101209.72;4980307;28;20177;-45
2022/08/03 03:55:39;;;;;;;9.60;4.22;;;;;;;17.85;88.37;101206.13;4977765;28;20330;-44
2022/08/03 03:58:05;;;;;;;4.40;4.00;;;;;;;17.88;88.33;101214.94;4973997;28;20178;-46
2022/08/03 04:00:30;;;;;;;5.85;4.32;;;;;;;17.89;88.46;101205.84;4974117;28;20280;-44
2022/08/03 04:02:56;;;;;;;7.38;4.40;;;;;;;17.99;88.06;101208.81;4973647;28;20356;-45
2022/08/03 04:11:36;;;;;;;5.40;4.72;;;;;;;18.16;87.34;101215.91;4974994;28;20185;-45
2022/08/03 04:14:09;;;;;;;4.75;4.30;;;;;;;18.07;88.13;101209.22;4952018;29;20182;-45
2022/08/03 04:16:47;;;;;;;4.60;4.20;;;;;;;18.12;88.02;101217.06;4965244;28;20276;-44
2022/08/03 04:19:23;;;;;;;6.07;4.90;;;;;;;18.21;87.78;101216.47;4973988;28;20236;-44
2022/08/03 04:21:51;;;;;;;6.10;4.63;;;;;;;18.28;87.07;101208.84;4973862;28;20201;-45
2022/08/03 04:24:18;;;;;;;7.00;4.38;;;;;;;18.37;87.16;101213.66;4973586;28;20222;-47
2022/08/03 04:26:46;;;;;;;7.35;4.45;;;;;;;18.41;86.95;101226.06;4973857;28;20198;-45
2022/08/03 04:29:13;;;;;;;6.22;4.90;;;;;;;18.45;86.71;101222.16;4974163;28;20614;-48
2022/08/03 04:31:40;;;;;;;6.13;5.00;;;;;;;18.56;86.14;101221.44;4979946;28;20207;-45
2022/08/03 04:34:06;;;;;;;9.75;4.78;;;;;;;18.62;85.94;101215.63;4992480;28;20165;-46
2022/08/03 04:36:37;;;;;;;5.03;4.53;;;;;;;18.73;85.12;101223.91;4993495;28;20595;-46
2022/08/03 04:39:21;;;;;;;4.35;3.95;;;;;;;18.78;85.16;101218.22;4992970;28;20186;-45
2022/08/03 04:41:48;;;;;;;5.47;4.50;;;;;;;18.86;85.06;101224.00;4993208;28;20197;-47
2022/08/03 04:44:14;;;;;;;7.63;4.95;;;;;;;19.02;84.53;101217.56;4992135;28;20606;-47
2022/08/03 04:46:43;;;;;;;7.45;4.70;;;;;;;19.08;83.81;101228.88;4992938;28;20165;-46
2022/08/03 04:49:09;;;;;;;4.45;4.05;;;;;;;19.17;83.86;101216.50;4992026;28;20185;-45
2022/08/03 04:51:37;;;;;;;6.05;4.45;;;;;;;19.18;84.13;101228.28;4992757;28;20197;-46
2022/08/03 04:54:03;;;;;;;8.07;4.90;;;;;;;19.26;83.57;101225.88;4991122;28;20177;-47
2022/08/03 04:56:29;;;;;;;4.95;4.35;;;;;;;19.49;82.80;101224.31;4992595;28;20597;-44
2022/08/03 04:58:55;;;;;;;4.85;4.35;;;;;;;19.69;82.52;101220.19;4991512;28;20185;-52
2022/08/03 05:01:21;;;;;;;5.80;4.40;;;;;;;19.90;81.49;101229.59;4992992;28;20624;-45
2022/08/03 05:03:47;;;;;;;5.13;4.40;;;;;;;20.16;80.54;101233.16;4992962;28;20271;-50
2022/08/03 05:06:12;;;;;;;4.38;3.95;;;;;;;20.33;80.59;101228.31;4993193;28;20245;-46
2022/08/03 05:08:38;;;;;;;7.00;4.22;;;;;;;20.48;79.04;101221.75;4993017;28;20588;-45
2022/08/03 05:11:04;;;;;;;4.22;3.83;;;;;;;20.53;78.62;101222.31;4992793;28;20193;-45
2022/08/03 05:13:29;;;;;;;5.95;4.47;;;;;;;20.69;78.57;101226.66;4974989;28;20276;-49
2022/08/03 05:15:55;;;;;;;11.18;4.40;;;;;;;20.82;78.39;101224.75;4992670;28;20251;-43
2022/08/03 05:18:20;;;;;;;5.38;4.20;;;;;;;20.70;77.72;101223.78;4992629;28;20180;-44
2022/08/03 05:20:46;;;;;;;5.60;4.20;;;;;;;20.79;77.62;101227.69;4991118;28;20177;-46
2022/08/03 05:23:11;;;;;;;5.13;3.67;;;;;;;20.87;77.37;101232.56;4992570;28;20157;-42
2022/08/03 05:25:37;;;;;;;5.50;4.22;;;;;;;20.94;76.60;101226.50;4992509;28;20201;-43
2022/08/03 05:28:03;;;;;;;4.43;3.80;;;;;;;20.89;76.82;101230.59;4990816;28;20185;-44
2022/08/03 05:30:28;;;;;;;5.63;4.30;;;;;;;20.92;76.61;101231.22;4992327;28;20208;-44
2022/08/03 05:32:54;;;;;;;6.60;4.20;;;;;;;20.88;77.00;101223.38;4976412;28;20194;-44
2022/08/03 05:35:19;;;;;;;4.60;3.75;;;;;;;20.88;77.35;101220.66;4972966;28;20229;-45
2022/08/03 05:37:45;;;;;;;5.07;3.20;;;;;;;20.96;77.40;101227.28;4972639;28;20545;-45
2022/08/03 05:40:11;;;;;;;4.35;3.75;;;;;;;21.15;77.25;101221.31;4972915;28;20189;-47
2022/08/03 05:42:36;;;;;;;4.72;4.20;;;;;;;21.17;77.12;101222.06;4972431;28;20205;-50
2022/08/03 05:45:13;;;;;;;5.38;3.83;;;;;;;21.29;76.90;101230.28;4972644;28;20162;-45
2022/08/03 05:47:43;;;;;;;5.97;3.95;;;;;;;21.28;77.27;101229.41;4972501;28;20181;-47
2022/08/03 05:50:10;;;;;;;6.10;3.85;;;;;;;21.38;77.04;101222.28;4972774;28;20677;-46
2022/08/03 05:52:36;;;;;;;3.65;3.10;;;;;;;21.52;76.40;101218.50;4972413;28;20208;-46
2022/08/03 05:55:04;;;;;;;5.75;4.00;;;;;;;21.53;76.34;101214.75;4972426;28;20198;-47
2022/08/03 05:57:30;;;;;;;5.20;3.90;;;;;;;21.78;75.73;101213.72;4972580;28;20653;-46
2022/08/03 05:59:56;;;;;;;11.10;4.72;;;;;;;22.02;75.88;101210.00;4972488;28;20165;-48
2022/08/03 06:02:21;;;;;;;4.95;3.60;;;;;;;21.99;75.70;101213.81;4991936;28;20205;-48
2022/08/03 06:04:46;;;;;;;5.55;3.53;;;;;;;22.17;74.33;101216.06;4991348;28;20611;-45
2022/08/03 06:07:12;;;;;;;7.03;3.47;;;;;;;22.34;74.83;101215.59;4991691;28;20191;-45
2022/08/03 06:09:37;;;;;;;4.35;3.63;;;;;;;22.76;72.46;101195.78;4990308;28;20676;-47
2022/08/03 06:12:04;;;;;;;7.53;3.78;;;;;;;22.92;71.70;101207.16;4986492;28;20683;-45
2022/08/03 06:14:29;;;;;;;6.00;3.45;;;;;;;22.92;71.98;101212.63;4991432;28;20224;-43
2022/08/03 06:16:55;;;;;;;7.22;3.30;;;;;;;23.02;71.25;101205.44;4991100;28;20227;-44
2022/08/03 06:19:20;;;;;;;4.38;2.90;;;;;;;23.29;71.22;101209.53;4991468;28;20227;-45
2022/08/03 06:21:45;;;;;;;5.85;2.97;;;;;;;23.67;70.87;101209.94;4991203;28;20201;-47
2022/08/03 06:24:11;;;;;;;3.95;2.75;;;;;;;23.72;70.37;101211.25;4990514;28;20947;-48
2022/08/03 06:26:36;;;;;;;6.20;3.17;;;;;;;23.61;69.80;101209.47;4973005;28;20218;-49
2022/08/03 06:29:02;;;;;;;5.97;3.22;;;;;;;23.74;70.05;101209.25;4990807;28;20181;-48
2022/08/03 06:31:28;;;;;;;6.15;2.83;;;;;;;23.93;68.94;101204.94;4990877;28;20193;-48
2022/08/03 06:33:54;;;;;;;9.18;2.63;;;;;;;24.12;68.93;101218.72;4990248;28;20185;-46
2022/08/03 06:36:19;;;;;;;5.55;2.65;;;;;;;23.98;68.99;101211.72;4990585;28;20243;-48
2022/08/03 06:38:45;;;;;;;5.22;2.40;;;;;;;23.94;69.24;101210.28;4990137;28;20169;-47
2022/08/03 06:41:11;;;;;;;4.72;2.55;;;;;;;24.30;68.48;101207.09;4990363;28;20595;-47
2022/08/03 06:43:36;;;;;;;5.28;2.60;;;;;;;24.62;68.51;101215.13;4986153;28;20200;-46
2022/08/03 06:46:03;;;;;;;9.93;3.17;;;;;;;24.00;69.50;101211.59;4970520;28;20660;-47
2022/08/03 06:48:28;;;;;;;5.50;2.50;;;;;;;24.67;68.42;101211.00;4971277;28;20170;-46
2022/08/03 06:50:54;;;;;;;6.90;2.70;;;;;;;25.02;66.41;101211.47;4971193;28;20247;-46
2022/08/03 06:53:19;;;;;;;5.53;2.40;;;;;;;24.77;66.01;101215.63;4970599;28;20209;-46
2022/08/03 06:55:45;;;;;;;6.25;2.28;;;;;;;25.21;65.50;101225.22;4970960;28;20248;-47
2022/08/03 06:58:10;;;;;;;6.93;2.30;;;;;;;25.08;66.00;101211.75;4970796;28;20166;-48
2022/08/03 07:00:36;;;;;;;3.33;2.10;;;;;;;25.43;64.36;101215.81;4970108;28;20248;-48
2022/08/03 07:03:01;;;;;;;5.00;2.50;;;;;;;25.18;65.96;101219.97;4970545;28;20703;-46
2022/08/03 07:05:27;;;;;;;5.32;2.40;;;;;;;25.51;64.12;101219.72;4970966;28;20177;-47
2022/08/03 07:08:00;;;;;;;6.90;2.03;;;;;;;25.26;63.75;101220.16;4971037;28;20264;-48
2022/08/03 07:10:26;;;;;;;6.40;2.40;;;;;;;25.48;63.60;101223.63;4970837;28;20189;-46
2022/08/03 07:12:52;;;;;;;5.47;2.50;;;;;;;25.31;63.10;101227.09;4971180;28;20197;-47
2022/08/03 07:15:17;;;;;;;7.22;2.67;;;;;;;25.48;63.65;101229.97;4970450;28;20793;-46
2022/08/03 07:17:43;;;;;;;4.45;2.00;;;;;;;25.87;63.06;101223.53;4969857;28;20276;-47
2022/08/03 07:20:08;;;;;;;4.68;2.13;;;;;;;25.91;62.09;101219.53;4970794;28;20625;-45
2022/08/03 07:22:34;;;;;;;4.40;2.05;;;;;;;26.03;61.16;101222.94;4970770;28;20248;-47
2022/08/03 07:25:00;;;;;;;5.85;2.60;;;;;;;25.96;61.31;101227.31;4970681;28;20169;-46
2022/08/03 07:27:27;;;;;;;4.40;2.20;;;;;;;25.94;60.81;101224.69;4970999;28;20193;-46
2022/08/03 07:29:53;;;;;;;5.82;2.00;;;;;;;26.00;61.01;101229.59;4970974;28;20200;-46
2022/08/03 07:32:19;;;;;;;3.45;2.20;;;;;;;25.68;60.71;101218.97;4981893;28;20209;-47
2022/08/03 07:34:44;;;;;;;5.53;2.53;;;;;;;25.98;60.46;101223.38;4989847;28;20208;-46
2022/08/03 07:37:10;;;;;;;4.72;2.50;;;;;;;26.19;60.38;101225.03;4990490;28;20181;-47
2022/08/03 07:39:35;;;;;;;7.90;2.67;;;;;;;25.71;61.52;101224.13;4990051;28;20173;-46
2022/08/03 07:42:01;;;;;;;7.03;2.60;;;;;;;26.12;60.11;101221.19;4980915;28;21158;-46
2022/08/03 07:44:26;;;;;;;6.70;2.15;;;;;;;26.56;59.43;101215.94;4981013;28;20189;-43
2022/08/03 07:46:52;;;;;;;6.28;2.83;;;;;;;26.62;58.21;101207.94;4987046;28;20295;-47
2022/08/03 07:49:17;;;;;;;7.05;2.75;;;;;;;26.86;58.21;101215.59;4968506;28;20593;-47
2022/08/03 07:51:43;;;;;;;6.65;2.45;;;;;;;26.82;57.48;101211.41;4982041;28;20189;-46
2022/08/03 07:54:11;;;;;;;2.70;1.88;;;;;;;26.99;56.61;101212.44;4972563;28;20208;-46
2022/08/03 07:56:37;;;;;;;10.05;2.30;;;;;;;26.58;55.90;101200.16;4973770;28;20166;-49
2022/08/03 07:59:02;;;;;;;7.25;2.28;;;;;;;27.12;56.54;101204.69;4973537;28;20185;-48
2022/08/03 08:01:31;;;;;;;4.35;1.92;;;;;;;27.06;54.47;101210.78;4972585;28;20201;-48
2022/08/03 08:03:56;;;;;;;3.70;1.73;;;;;;;27.54;53.42;101200.41;4972427;28;20248;-51
2022/08/03 08:06:22;;;;;;;8.35;2.03;;;;;;;27.31;52.64;101209.19;4972662;28;20269;-49
2022/08/03 08:08:47;;;;;;;5.82;2.13;;;;;;;27.72;51.42;101201.22;4973863;28;20615;-50
2022/08/03 08:11:13;;;;;;;3.63;1.90;;;;;;;27.64;51.36;101214.06;4974517;28;20205;-49
2022/08/03 08:13:39;;;;;;;3.95;1.58;;;;;;;27.33;51.77;101206.25;4973608;28;20182;-48
2022/08/03 08:16:05;;;;;;;3.00;2.00;;;;;;;27.55;51.65;101196.66;4974010;28;20200;-55
2022/08/03 08:18:31;;;;;;;3.58;1.83;;;;;;;27.60;50.83;101183.25;4976142;28;20610;-49
2022/08/03 08:20:56;;;;;;;3.45;2.20;;;;;;;27.47;50.74;101182.81;4984695;28;20181;-50
2022/08/03 08:23:22;;;;;;;7.25;2.30;;;;;;;28.01;50.39;101196.44;4974008;28;20182;-47
2022/08/03 08:25:50;;;;;;;2.95;2.17;;;;;;;27.66;50.92;101201.00;4993001;28;20176;-47
2022/08/03 08:28:20;;;;;;;8.18;2.50;;;;;;;27.51;50.80;101196.09;4992929;28;20196;-48
2022/08/03 08:30:45;;;;;;;3.83;2.00;;;;;;;27.92;50.93;101204.69;4976786;28;20181;-48
2022/08/03 08:33:12;;;;;;;7.38;2.05;;;;;;;27.74;50.98;101192.81;4974214;28;20562;-51
2022/08/03 08:35:37;;;;;;;5.93;2.13;;;;;;;27.63;51.51;101201.34;4973300;28;20194;-50
2022/08/03 08:38:03;;;;;;;4.18;1.98;;;;;;;27.74;51.05;101195.56;4973621;28;20189;-48
2022/08/03 08:40:29;;;;;;;4.75;2.40;;;;;;;27.90;51.04;101194.81;4973499;28;20174;-49
2022/08/03 08:42:54;;;;;;;4.47;2.30;;;;;;;27.57;50.75;101201.97;4973347;28;20194;-49
2022/08/03 08:45:20;;;;;;;4.15;1.77;;;;;;;27.96;51.10;101191.41;4973404;28;20225;-49
2022/08/03 08:47:48;;;;;;;5.75;2.13;;;;;;;28.08;50.53;101189.25;4973008;28;20189;-50
2022/08/03 08:50:18;;;;;;;4.93;1.90;;;;;;;28.01;50.44;101190.91;4973236;28;20210;-51
2022/08/03 08:52:45;;;;;;;7.10;2.10;;;;;;;28.01;50.71;101188.16;4986943;28;20296;-49
2022/08/03 08:55:15;;;;;;;5.82;2.20;;;;;;;28.11;50.15;101184.25;4973157;28;20296;-48
2022/08/03 08:57:47;;;;;;;4.07;1.95;;;;;;;28.17;50.81;101188.25;4973275;28;20196;-48
2022/08/03 09:00:14;;;;;;;5.18;2.03;;;;;;;28.22;50.14;101188.63;4973491;28;20268;-49
2022/08/03 09:02:41;;;;;;;5.28;2.00;;;;;;;28.21;51.08;101197.94;4971343;28;20223;-47
2022/08/03 09:05:13;;;;;;;8.25;2.00;;;;;;;28.64;49.75;101198.78;4973001;28;20571;-49
2022/08/03 09:07:39;;;;;;;6.35;2.20;;;;;;;28.02;51.12;101190.78;4973759;28;20571;-48
2022/08/03 09:10:10;;;;;;;3.50;1.80;;;;;;;28.15;51.15;101195.84;4973704;28;20201;-48
2022/08/03 09:12:44;;;;;;;7.82;2.45;;;;;;;28.32;51.25;101196.78;4972255;28;20248;-49
2022/08/03 09:15:16;;;;;;;3.95;1.90;;;;;;;28.76;50.39;101194.69;4972562;28;20567;-47
2022/08/03 09:17:41;;;;;;;4.30;1.70;;;;;;;28.67;50.75;101192.09;4973340;28;20170;-49
2022/08/03 09:20:08;;;;;;;8.43;2.33;;;;;;;28.50;51.70;101204.97;4973850;28;20192;-50
2022/08/03 09:22:34;;;;;;;4.70;1.83;;;;;;;28.75;51.05;101194.84;4973261;28;20190;-47
2022/08/03 09:25:03;;;;;;;4.25;1.95;;;;;;;28.64;51.55;101193.28;4972983;28;20180;-46
2022/08/03 09:27:41;;;;;;;6.72;2.28;;;;;;;28.82;51.17;101195.03;4972763;28;20195;-48
2022/08/03 09:30:15;;;;;;;4.28;1.95;;;;;;;28.64;51.47;101181.41;4973282;28;20571;-48
2022/08/03 09:32:43;;;;;;;7.47;2.08;;;;;;;29.03;51.42;101194.56;4986853;28;20211;-47
2022/08/03 09:35:10;;;;;;;4.22;1.80;;;;;;;28.78;51.17;101193.69;4992184;28;20193;-49
2022/08/03 09:37:36;;;;;;;6.32;1.80;;;;;;;28.69;52.39;101184.53;4992648;28;20196;-50
2022/08/03 09:40:03;;;;;;;4.75;1.95;;;;;;;28.71;52.67;101190.72;4992377;28;20164;-50
2022/08/03 09:42:28;;;;;;;5.93;2.20;;;;;;;28.51;52.40;101185.50;4992347;28;20192;-48
2022/08/03 09:44:54;;;;;;;7.25;1.95;;;;;;;28.86;52.23;101193.69;4990477;28;20177;-49
2022/08/03 09:47:31;;;;;;;6.22;2.30;;;;;;;28.67;52.05;101192.97;4992416;28;20234;-48
2022/08/03 09:50:07;;;;;;;4.47;2.08;;;;;;;28.76;52.04;101183.66;4992101;28;20219;-48
2022/08/03 09:52:39;;;;;;;9.68;2.15;;;;;;;28.78;52.18;101190.94;4992120;28;20659;-49
2022/08/03 09:55:13;;;;;;;4.10;2.08;;;;;;;29.04;51.20;101180.63;4991935;28;20216;-48
2022/08/03 09:57:45;;;;;;;8.18;2.20;;;;;;;28.92;51.55;101176.44;4992080;28;20165;-50
2022/08/03 10:00:11;;;;;;;4.32;1.80;;;;;;;29.25;52.21;101188.41;4992141;28;20176;-50
2022/08/03 10:02:41;;;;;;;2.13;1.90;;;;;;;29.01;51.95;101191.97;4991619;28;20200;-48
2022/08/03 10:05:08;;;;;;;4.40;1.92;;;;;;;29.03;52.20;101178.88;4991755;28;20652;-49
2022/08/03 10:07:45;;;;;;;6.57;2.00;;;;;;;29.23;51.14;101178.56;4992039;28;20173;-46
2022/08/03 10:10:11;;;;;;;3.17;1.88;;;;;;;29.47;51.46;101189.59;4992131;28;20655;-51
2022/08/03 10:12:37;;;;;;;5.38;2.13;;;;;;;29.48;51.42;101174.78;4992129;28;20219;-50
2022/08/03 10:15:04;;;;;;;7.50;1.95;;;;;;;29.34;50.91;101178.22;4990918;28;20698;-47
2022/08/03 10:17:30;;;;;;;6.40;1.95;;;;;;;29.40;51.09;101174.78;4992265;28;20165;-48
2022/08/03 10:19:57;;;;;;;4.63;1.67;;;;;;;29.62;51.06;101177.84;4991575;28;20216;-49
2022/08/03 10:22:26;;;;;;;4.05;1.67;;;;;;;29.58;51.44;101172.69;4992095;28;20197;-50
2022/08/03 10:24:58;;;;;;;4.10;1.92;;;;;;;29.42;50.99;101167.19;4991329;28;20217;-50
2022/08/03 10:27:25;;;;;;;4.38;1.92;;;;;;;29.27;51.41;101175.28;4991647;28;20192;-51
2022/08/03 10:29:59;;;;;;;4.45;1.80;;;;;;;29.46;51.17;101168.56;4991442;28;20176;-45
2022/08/03 10:32:34;;;;;;;3.47;1.70;;;;;;;29.74;51.34;101159.94;4989856;28;20204;-47
2022/08/03 10:35:06;;;;;;;5.10;1.77;;;;;;;29.86;50.10;101154.88;4991405;28;20204;-47
2022/08/03 10:37:42;;;;;;;6.43;1.77;;;;;;;29.82;50.50;101153.50;4991424;28;20208;-48
2022/08/03 10:40:11;;;;;;;4.88;1.80;;;;;;;30.14;49.48;101167.22;4982825;28;20227;-50
2022/08/03 10:42:37;;;;;;;5.85;1.88;;;;;;;29.56;50.57;101173.88;4990968;28;20715;-49
2022/08/03 10:45:11;;;;;;;3.50;1.73;;;;;;;29.54;50.73;101156.63;4991058;28;20153;-46
2022/08/03 10:47:39;;;;;;;3.85;1.60;;;;;;;29.56;50.56;101165.59;4991264;28;20187;-47
2022/08/03 10:50:06;;;;;;;3.55;1.45;;;;;;;29.54;50.75;101162.16;4991387;28;20231;-48
2022/08/03 10:52:31;;;;;;;3.28;1.90;;;;;;;29.22;51.48;101163.06;4991432;28;20615;-48
2022/08/03 10:57:48;;;;;;;5.25;1.80;;;;;;;29.99;50.41;101166.22;4991341;28;20195;-48
2022/08/03 11:00:16;;;;;;;4.68;1.75;;;;;;;29.67;50.09;101164.38;4991210;28;20570;-49
2022/08/03 11:03:09;;;;;;;5.93;2.20;;;;;;;29.67;50.39;101164.38;4991217;28;20621;-47
2022/08/03 11:05:37;;;;;;;5.00;2.10;;;;;;;29.33;52.06;101171.00;4989563;28;20549;-47
2022/08/03 11:08:28;;;;;;;5.07;2.17;;;;;;;29.65;51.13;101171.97;4991285;28;20169;-48
2022/08/03 11:11:17;;;;;;;9.90;2.00;;;;;;;29.77;50.49;101176.13;4990975;28;20165;-46
2022/08/03 11:14:03;;;;;;;6.13;1.83;;;;;;;29.52;51.36;101173.41;4990254;28;20212;-47
2022/08/03 11:16:34;;;;;;;7.18;2.10;;;;;;;29.67;50.68;101175.44;4991244;28;20216;-47
2022/08/03 11:19:05;;;;;;;5.15;2.10;;;;;;;29.71;51.30;101172.16;4989667;28;20184;-48
2022/08/03 11:21:52;;;;;;;6.25;1.58;;;;;;;29.47;51.12;101170.28;4991182;28;20246;-47
2022/08/03 11:24:35;;;;;;;4.03;1.80;;;;;;;29.77;50.68;101178.91;4990340;28;20215;-51
2022/08/03 11:27:13;;;;;;;4.18;1.70;;;;;;;29.57;50.80;101159.06;4994674;28;20668;-48
2022/08/03 11:30:06;;;;;;;5.80;1.88;;;;;;;29.77;51.50;101174.22;4994723;28;20188;-47
2022/08/03 11:32:43;;;;;;;4.95;1.88;;;;;;;29.71;50.84;101172.16;4994632;28;20291;-50
2022/08/03 11:35:23;;;;;;;5.45;1.67;;;;;;;29.82;50.18;101170.94;4994242;28;20236;-48
2022/08/03 11:37:57;;;;;;;5.22;2.00;;;;;;;29.96;50.38;101178.50;4995057;28;20177;-48
2022/08/03 11:40:48;;;;;;;6.03;1.73;;;;;;;29.97;50.72;101171.91;4994457;28;20164;-50